Time;durP1;ratioP1;P1;durP2;ratioP2;P2;SDS_P1;SDS_P2;PMS_P1;PMS_P2;Temp;Humidity;BMP_temperature;BMP_pressure;BME280_temperature;BME280_humidity;BME280_pressure;Samples;Min_cycle;Max_cycle;Signal;HPM_P1;HPM_P2
2021/10/12 00:01:10;0.00;0.00;0.62;0.00;0.00;0.62;4.10;1.30;;;26.30;27.60;;;;;;2256780;61;20386;-63
2021/10/12 00:03:55;0.00;0.00;0.62;0.00;0.00;0.62;3.03;0.90;;;26.30;27.60;;;;;;2257868;61;20367;-62
2021/10/12 00:06:39;0.00;0.00;0.62;0.00;0.00;0.62;2.50;1.10;;;26.30;27.60;;;;;;2257696;61;20432;-62
2021/10/12 00:09:27;0.00;0.00;0.62;0.00;0.00;0.62;2.10;0.90;;;26.30;27.60;;;;;;2257442;61;20375;-63
2021/10/12 00:12:11;0.00;0.00;0.62;0.00;0.00;0.62;2.90;1.13;;;26.20;27.60;;;;;;2257808;61;20352;-62
2021/10/12 00:14:56;0.00;0.00;0.62;0.00;0.00;0.62;4.90;1.00;;;26.20;27.60;;;;;;2257307;61;20619;-62
2021/10/12 00:17:40;0.00;0.00;0.62;0.00;0.00;0.62;2.20;1.20;;;26.20;28.10;;;;;;2257477;61;20426;-59
2021/10/12 00:20:25;0.00;0.00;0.62;0.00;0.00;0.62;3.23;1.17;;;26.10;27.50;;;;;;2257718;61;20430;-61
2021/10/12 00:23:10;0.00;0.00;0.62;0.00;0.00;0.62;1.97;1.00;;;26.10;27.50;;;;;;2256766;61;20354;-61
2021/10/12 00:25:56;0.00;0.00;0.62;0.00;0.00;0.62;3.03;1.37;;;26.10;27.60;;;;;;2257771;61;20386;-64
2021/10/12 00:28:40;0.00;0.00;0.62;0.00;0.00;0.62;2.47;1.10;;;26.00;27.50;;;;;;2257744;61;20802;-65
2021/10/12 00:31:25;0.00;0.00;0.62;0.00;0.00;0.62;1.87;1.00;;;26.00;27.50;;;;;;2256989;61;20739;-64
2021/10/12 00:34:09;0.00;0.00;0.62;0.00;0.00;0.62;2.37;1.10;;;26.00;27.50;;;;;;2257767;61;20735;-60
2021/10/12 00:36:54;0.00;0.00;0.62;0.00;0.00;0.62;2.90;1.10;;;26.00;27.50;;;;;;2257789;61;20398;-64
2021/10/12 00:39:40;0.00;0.00;0.62;0.00;0.00;0.62;1.93;1.00;;;25.90;27.40;;;;;;2258132;61;20362;-63
2021/10/12 00:42:26;0.00;0.00;0.62;0.00;0.00;0.62;3.00;1.93;;;25.90;27.40;;;;;;2258347;61;20359;-63
2021/10/12 00:45:12;0.00;0.00;0.62;0.00;0.00;0.62;3.40;1.23;;;25.80;27.40;;;;;;2257428;61;20363;-64
2021/10/12 00:47:58;0.00;0.00;0.62;0.00;0.00;0.62;2.80;1.20;;;25.80;27.40;;;;;;2258369;61;20597;-64
2021/10/12 00:50:43;0.00;0.00;0.62;0.00;0.00;0.62;2.67;1.00;;;25.80;27.40;;;;;;2258393;61;20363;-60
2021/10/12 00:53:27;0.00;0.00;0.62;0.00;0.00;0.62;2.87;1.40;;;25.70;27.40;;;;;;2257412;61;20482;-63
2021/10/12 00:56:11;0.00;0.00;0.62;0.00;0.00;0.62;2.43;1.20;;;25.70;27.40;;;;;;2258169;61;20362;-63
2021/10/12 00:58:57;0.00;0.00;0.62;0.00;0.00;0.62;2.37;1.30;;;25.70;27.40;;;;;;2257880;61;20434;-63
2021/10/12 01:01:42;0.00;0.00;0.62;0.00;0.00;0.62;3.83;1.10;;;25.70;27.40;;;;;;2257837;61;20494;-64
2021/10/12 01:04:26;0.00;0.00;0.62;0.00;0.00;0.62;5.90;1.00;;;25.70;27.50;;;;;;2258343;61;20406;-63
2021/10/12 01:07:11;0.00;0.00;0.62;0.00;0.00;0.62;1.80;1.23;;;25.60;27.40;;;;;;2257434;61;20758;-62
2021/10/12 01:09:56;0.00;0.00;0.62;0.00;0.00;0.62;3.00;1.10;;;25.60;27.50;;;;;;2258530;61;20363;-64
2021/10/12 01:12:40;0.00;0.00;0.62;0.00;0.00;0.62;2.43;0.90;;;25.50;27.50;;;;;;2258265;61;20374;-63
2021/10/12 01:15:27;0.00;0.00;0.62;0.00;0.00;0.62;3.33;1.00;;;25.50;27.50;;;;;;2257343;61;20343;-64
2021/10/12 01:18:13;0.00;0.00;0.62;0.00;0.00;0.62;3.17;0.90;;;25.50;27.50;;;;;;2258483;61;20382;-62
2021/10/12 01:20:59;0.00;0.00;0.62;0.00;0.00;0.62;2.27;1.10;;;25.50;27.50;;;;;;2257737;61;20426;-60
2021/10/12 01:23:44;0.00;0.00;0.62;0.00;0.00;0.62;2.93;1.00;;;25.50;27.60;;;;;;2257755;61;20493;-64
2021/10/12 01:26:29;0.00;0.00;0.62;0.00;0.00;0.62;1.67;0.90;;;25.50;27.60;;;;;;2258260;61;20406;-64
2021/10/12 01:29:15;0.00;0.00;0.62;0.00;0.00;0.62;2.07;0.90;;;25.40;27.60;;;;;;2257436;61;20422;-61
2021/10/12 01:32:00;0.00;0.00;0.62;0.00;0.00;0.62;3.70;1.40;;;25.40;27.60;;;;;;2258150;61;20378;-62
2021/10/12 01:34:44;0.00;0.00;0.62;0.00;0.00;0.62;1.67;1.20;;;25.40;27.60;;;;;;2258180;61;20413;-64
2021/10/12 01:37:30;0.00;0.00;0.62;0.00;0.00;0.62;1.80;0.90;;;25.40;27.60;;;;;;2257107;61;20390;-63
2021/10/12 01:40:16;0.00;0.00;0.62;0.00;0.00;0.62;2.13;0.90;;;25.30;27.50;;;;;;2258261;61;20383;-64
2021/10/12 01:43:00;0.00;0.00;0.62;0.00;0.00;0.62;2.30;1.03;;;25.30;27.60;;;;;;2257914;61;20626;-62
2021/10/12 01:45:44;0.00;0.00;0.62;0.00;0.00;0.62;1.70;0.87;;;25.30;27.60;;;;;;2257611;61;20342;-63
2021/10/12 01:48:29;0.00;0.00;0.62;0.00;0.00;0.62;3.77;1.00;;;25.30;27.60;;;;;;2258219;61;20604;-63
2021/10/12 01:51:14;0.00;0.00;0.62;0.00;0.00;0.62;2.20;1.67;;;25.20;27.60;;;;;;2257454;61;20351;-62
2021/10/12 01:54:01;0.00;0.00;0.62;0.00;0.00;0.62;1.83;1.00;;;25.20;27.60;;;;;;2257969;61;20471;-61
2021/10/12 01:56:47;0.00;0.00;0.62;0.00;0.00;0.62;3.37;1.17;;;25.20;27.60;;;;;;2257947;61;20362;-64
2021/10/12 01:59:32;0.00;0.00;0.62;0.00;0.00;0.62;4.70;1.90;;;25.20;27.60;;;;;;2257280;61;20438;-63
2021/10/12 02:02:17;0.00;0.00;0.62;0.00;0.00;0.62;2.53;0.97;;;25.20;27.70;;;;;;2258067;61;20355;-60
2021/10/12 02:05:01;0.00;0.00;0.62;0.00;0.00;0.62;2.67;1.10;;;25.10;27.60;;;;;;2258060;61;20723;-60
2021/10/12 02:07:46;0.00;0.00;0.62;0.00;0.00;0.62;1.50;0.80;;;25.10;27.60;;;;;;2257481;61;20386;-62
2021/10/12 02:10:32;0.00;0.00;0.62;0.00;0.00;0.62;2.30;1.03;;;25.10;27.60;;;;;;2257904;61;20366;-63
2021/10/12 02:13:17;0.00;0.00;0.62;0.00;0.00;0.62;2.37;1.10;;;25.10;27.60;;;;;;2257550;61;20733;-61
2021/10/12 02:16:02;0.00;0.00;0.62;0.00;0.00;0.62;2.50;1.17;;;25.10;27.70;;;;;;2257835;61;20417;-60
2021/10/12 02:18:46;0.00;0.00;0.62;0.00;0.00;0.62;1.60;0.80;;;25.10;27.70;;;;;;2258214;61;20412;-63
2021/10/12 02:21:31;0.00;0.00;0.62;0.00;0.00;0.62;2.83;1.10;;;25.00;27.60;;;;;;2257152;61;20394;-61
2021/10/12 02:24:15;0.00;0.00;0.62;0.00;0.00;0.62;3.30;1.07;;;25.00;27.60;;;;;;2257981;61;20691;-62
2021/10/12 02:27:01;0.00;0.00;0.62;0.00;0.00;0.62;1.87;0.80;;;25.00;28.20;;;;;;2257996;61;20564;-62
2021/10/12 02:29:46;0.00;0.00;0.62;0.00;0.00;0.62;1.80;1.10;;;24.90;27.50;;;;;;2257334;61;20808;-61
2021/10/12 02:32:31;0.00;0.00;0.62;0.00;0.00;0.62;1.90;1.17;;;24.90;27.60;;;;;;2257905;61;20348;-64
2021/10/12 02:35:15;0.00;0.00;0.62;0.00;0.00;0.62;2.53;1.20;;;24.90;27.60;;;;;;2257512;61;20391;-63
2021/10/12 02:37:59;0.00;0.00;0.62;0.00;0.00;0.62;3.80;1.60;;;24.90;27.60;;;;;;2257462;61;20418;-61
2021/10/12 02:40:44;0.00;0.00;0.62;0.00;0.00;0.62;2.33;1.20;;;24.80;27.50;;;;;;2258037;61;20386;-63
2021/10/12 02:43:30;0.00;0.00;0.62;0.00;0.00;0.62;2.67;0.87;;;24.80;27.50;;;;;;2257262;61;20579;-63
2021/10/12 02:46:14;0.00;0.00;0.62;0.00;0.00;0.62;3.70;1.43;;;24.80;27.60;;;;;;2257875;61;20383;-63
2021/10/12 02:48:59;0.00;0.00;0.62;0.00;0.00;0.62;2.20;1.10;;;24.80;27.60;;;;;;2258007;61;20386;-61
2021/10/12 02:51:44;0.00;0.00;0.62;0.00;0.00;0.62;2.53;1.30;;;24.70;27.60;;;;;;2253902;61;20402;-62
2021/10/12 02:54:28;0.00;0.00;0.62;0.00;0.00;0.62;4.90;1.00;;;24.70;27.60;;;;;;2257884;61;20418;-60
2021/10/12 02:57:13;0.00;0.00;0.62;0.00;0.00;0.62;1.60;0.73;;;24.70;27.50;;;;;;2257250;61;20391;-63
2021/10/12 02:59:59;0.00;0.00;0.62;0.00;0.00;0.62;2.23;1.03;;;24.70;27.60;;;;;;2257345;61;20390;-62
2021/10/12 03:02:43;0.00;0.00;0.62;0.00;0.00;0.62;1.80;1.00;;;24.70;27.60;;;;;;2258117;61;20367;-63
2021/10/12 03:05:28;0.00;0.00;0.62;0.00;0.00;0.62;2.03;1.00;;;24.60;27.50;;;;;;2257227;61;20374;-61
2021/10/12 03:08:13;0.00;0.00;0.62;0.00;0.00;0.62;1.93;1.20;;;24.60;27.60;;;;;;2257682;61;20394;-64
2021/10/12 03:10:57;0.00;0.00;0.62;0.00;0.00;0.62;2.87;1.20;;;24.60;27.60;;;;;;2257977;61;20359;-63
2021/10/12 03:13:42;0.00;0.00;0.62;0.00;0.00;0.62;1.90;1.00;;;24.50;27.50;;;;;;2256929;61;20385;-62
2021/10/12 03:16:28;0.00;0.00;0.62;0.00;0.00;0.62;2.10;0.90;;;24.60;27.60;;;;;;2257789;61;20379;-62
2021/10/12 03:19:14;0.00;0.00;0.62;0.00;0.00;0.62;1.63;0.70;;;24.50;27.60;;;;;;2257734;61;20386;-61
2021/10/12 03:22:04;0.00;0.00;0.62;0.00;0.00;0.62;1.83;0.80;;;24.50;27.60;;;;;;2257475;61;20438;-61
2021/10/12 03:24:49;0.00;0.00;0.62;0.00;0.00;0.62;3.10;1.00;;;24.50;27.60;;;;;;2257905;61;20613;-61
2021/10/12 03:27:33;0.00;0.00;0.62;0.00;0.00;0.62;2.03;0.93;;;24.50;27.60;;;;;;2256956;61;20593;-63
2021/10/12 03:30:18;0.00;0.00;0.62;0.00;0.00;0.62;1.50;0.90;;;24.50;27.60;;;;;;2257757;61;20355;-61
2021/10/12 03:33:05;0.00;0.00;0.62;0.00;0.00;0.62;2.63;1.00;;;24.50;27.60;;;;;;2257851;61;20366;-61
2021/10/12 03:36:01;0.00;0.00;0.62;0.00;0.00;0.62;2.00;0.97;;;24.40;27.60;;;;;;2256784;61;20382;-62
2021/10/12 03:38:45;0.00;0.00;0.62;0.00;0.00;0.62;2.47;1.10;;;24.40;27.60;;;;;;2254778;61;20661;-62
2021/10/12 03:41:30;0.00;0.00;0.62;0.00;0.00;0.62;2.10;1.07;;;24.40;27.60;;;;;;2257351;61;20390;-60
2021/10/12 03:44:14;0.00;0.00;0.62;0.00;0.00;0.62;1.57;0.80;;;24.40;28.20;;;;;;2257104;61;20362;-61
2021/10/12 03:46:59;0.00;0.00;0.62;0.00;0.00;0.62;2.40;1.00;;;24.30;27.60;;;;;;2257754;61;20362;-61
2021/10/12 03:49:45;0.00;0.00;0.62;0.00;0.00;0.62;1.97;0.93;;;24.30;27.60;;;;;;2256982;61;20370;-64
2021/10/12 03:52:29;0.00;0.00;0.62;0.00;0.00;0.62;2.40;1.47;;;24.30;27.60;;;;;;2257630;61;20363;-61
2021/10/12 03:55:14;0.00;0.00;0.62;0.00;0.00;0.62;2.27;0.90;;;24.30;27.70;;;;;;2257885;61;20434;-63
2021/10/12 03:57:58;0.00;0.00;0.62;0.00;0.00;0.62;2.00;0.90;;;24.30;27.60;;;;;;2256516;61;20386;-61
2021/10/12 04:00:43;0.00;0.00;0.62;0.00;0.00;0.62;2.03;1.00;;;24.30;27.70;;;;;;2257891;61;20470;-64
2021/10/12 04:03:27;0.00;0.00;0.62;0.00;0.00;0.62;1.90;1.10;;;24.30;27.70;;;;;;2257631;61;20359;-63
2021/10/12 04:06:13;0.00;0.00;0.62;0.00;0.00;0.62;2.10;1.20;;;24.20;27.60;;;;;;2257332;61;20711;-61
2021/10/12 04:08:58;0.00;0.00;0.62;0.00;0.00;0.62;2.07;1.10;;;24.20;27.60;;;;;;2257572;61;20425;-61
2021/10/12 04:11:42;0.00;0.00;0.62;0.00;0.00;0.62;2.57;1.20;;;24.20;27.70;;;;;;2257165;61;20351;-62
2021/10/12 04:14:27;0.00;0.00;0.62;0.00;0.00;0.62;3.20;1.60;;;24.20;27.70;;;;;;2257602;61;20740;-63
2021/10/12 04:17:11;0.00;0.00;0.62;0.00;0.00;0.62;3.07;1.47;;;24.10;27.70;;;;;;2257556;61;20596;-60
2021/10/12 04:19:56;0.00;0.00;0.62;0.00;0.00;0.62;2.80;1.20;;;24.10;27.80;;;;;;2256782;61;20459;-63
2021/10/12 04:22:42;0.00;0.00;0.62;0.00;0.00;0.62;1.97;1.10;;;24.10;27.80;;;;;;2257890;61;20704;-63
2021/10/12 04:25:26;0.00;0.00;0.62;0.00;0.00;0.62;3.07;1.30;;;24.10;27.80;;;;;;2257628;61;20422;-62
2021/10/12 04:28:13;0.00;0.00;0.62;0.00;0.00;0.62;3.37;1.40;;;24.00;27.80;;;;;;2256805;61;20398;-63
2021/10/12 04:30:57;0.00;0.00;0.62;0.00;0.00;0.62;2.57;1.07;;;24.00;27.90;;;;;;2257711;61;20398;-63
2021/10/12 04:33:42;0.00;0.00;0.62;0.00;0.00;0.62;3.70;1.40;;;24.00;27.90;;;;;;2257216;61;20413;-63
2021/10/12 04:36:27;0.00;0.00;0.62;0.00;0.00;0.62;3.50;1.40;;;24.00;28.50;;;;;;2257210;61;20382;-64
2021/10/12 04:39:12;0.00;0.00;0.62;0.00;0.00;0.62;2.73;1.00;;;24.00;28.00;;;;;;2257750;61;20598;-62
2021/10/12 04:41:58;0.00;0.00;0.62;0.00;0.00;0.62;1.73;0.90;;;23.90;28.00;;;;;;2257094;61;20391;-59
2021/10/12 04:44:47;0.00;0.00;0.62;0.00;0.00;0.62;2.13;0.90;;;23.90;28.00;;;;;;2258112;61;20433;-59
2021/10/12 04:47:33;0.00;0.00;0.62;0.00;0.00;0.62;2.43;1.57;;;23.90;28.00;;;;;;2257834;61;20387;-63
2021/10/12 04:50:18;0.00;0.00;0.62;0.00;0.00;0.62;3.00;1.30;;;23.90;28.10;;;;;;2257021;61;20375;-60
2021/10/12 04:53:02;0.00;0.00;0.62;0.00;0.00;0.62;1.97;1.07;;;23.90;28.60;;;;;;2257546;61;20775;-63
2021/10/12 04:55:49;0.00;0.00;0.62;0.00;0.00;0.62;2.10;1.00;;;23.90;28.20;;;;;;2257244;61;20370;-61
2021/10/12 04:58:34;0.00;0.00;0.62;0.00;0.00;0.62;1.90;1.37;;;23.90;28.20;;;;;;2254152;61;20391;-62
2021/10/12 05:01:18;0.00;0.00;0.62;0.00;0.00;0.62;4.10;1.30;;;23.90;28.20;;;;;;2257630;61;20432;-60
2021/10/12 05:04:03;0.00;0.00;0.62;0.00;0.00;0.62;2.37;1.37;;;23.90;28.20;;;;;;2256901;61;20370;-60
2021/10/12 05:06:47;0.00;0.00;0.62;0.00;0.00;0.62;2.20;1.10;;;23.90;28.20;;;;;;2257562;61;20440;-63
2021/10/12 05:09:32;0.00;0.00;0.62;0.00;0.00;0.62;1.90;1.00;;;23.90;28.30;;;;;;2257828;61;20373;-61
2021/10/12 05:12:18;0.00;0.00;0.62;0.00;0.00;0.62;3.67;1.60;;;23.90;28.30;;;;;;2256789;61;20443;-62
2021/10/12 05:15:03;0.00;0.00;0.62;0.00;0.00;0.62;3.67;1.27;;;23.90;28.40;;;;;;2257593;61;20463;-64
2021/10/12 05:17:48;0.00;0.00;0.62;0.00;0.00;0.62;3.00;1.20;;;23.90;28.40;;;;;;2256988;61;20706;-60
2021/10/12 05:20:33;0.00;0.00;0.62;0.00;0.00;0.62;2.60;1.43;;;23.80;28.40;;;;;;2257044;61;20422;-62
2021/10/12 05:23:18;0.00;0.00;0.62;0.00;0.00;0.62;2.47;1.30;;;23.80;28.40;;;;;;2258223;61;20366;-61
2021/10/12 05:26:04;0.00;0.00;0.62;0.00;0.00;0.62;2.20;1.30;;;23.80;28.40;;;;;;2257533;61;20578;-64
2021/10/12 05:28:51;0.00;0.00;0.62;0.00;0.00;0.62;5.70;1.60;;;23.80;28.50;;;;;;2258232;61;20394;-60
2021/10/12 05:31:36;0.00;0.00;0.62;0.00;0.00;0.62;3.00;1.50;;;23.70;28.50;;;;;;2258203;61;20402;-63
2021/10/12 05:34:21;0.00;0.00;0.62;0.00;0.00;0.62;2.80;1.40;;;23.70;28.50;;;;;;2257261;61;20391;-59
2021/10/12 05:37:05;0.00;0.00;0.62;0.00;0.00;0.62;2.97;1.30;;;23.70;28.50;;;;;;2258031;61;20358;-62
2021/10/12 05:39:50;0.00;0.00;0.62;0.00;0.00;0.62;1.57;1.03;;;23.70;28.60;;;;;;2258066;61;20443;-60
2021/10/12 05:42:34;0.00;0.00;0.62;0.00;0.00;0.62;1.60;1.07;;;23.70;28.60;;;;;;2257764;61;20474;-62
2021/10/12 05:45:20;0.00;0.00;0.62;0.00;0.00;0.62;3.27;1.40;;;23.70;28.60;;;;;;2254963;61;20394;-62
2021/10/12 05:48:07;0.00;0.00;0.62;0.00;0.00;0.62;2.27;1.10;;;23.70;28.60;;;;;;2257229;61;20801;-61
2021/10/12 05:50:52;0.00;0.00;0.62;0.00;0.00;0.62;2.93;1.30;;;23.70;28.60;;;;;;2257983;61;20405;-62
2021/10/12 05:56:46;0.00;0.00;0.62;0.00;0.00;0.62;2.37;1.10;;;23.70;28.60;;;;;;2257184;61;20738;-60
2021/10/12 05:59:32;0.00;0.00;0.62;0.00;0.00;0.62;2.80;1.20;;;23.70;28.50;;;;;;2522251;53;20372;-61
2021/10/12 06:02:18;0.00;0.00;0.62;0.00;0.00;0.62;2.33;1.10;;;23.70;28.50;;;;;;2253620;61;20387;-63
2021/10/12 06:05:04;0.00;0.00;0.62;0.00;0.00;0.62;2.13;1.03;;;23.70;28.50;;;;;;2253645;61;20579;-61
2021/10/12 06:07:48;0.00;0.00;0.62;0.00;0.00;0.62;2.40;1.30;;;23.80;28.60;;;;;;2255174;61;20410;-62
2021/10/12 06:10:35;0.00;0.00;0.62;0.00;0.00;0.62;2.17;1.30;;;23.80;28.60;;;;;;2257307;61;20730;-60
2021/10/12 06:13:21;0.00;0.00;0.62;0.00;0.00;0.62;1.83;0.97;;;23.80;28.60;;;;;;2258054;61;20406;-62
2021/10/12 06:16:07;0.00;0.00;0.62;0.00;0.00;0.62;1.80;1.00;;;23.80;28.60;;;;;;2258046;61;20418;-61
2021/10/12 06:18:53;0.00;0.00;0.62;0.00;0.00;0.62;1.80;1.00;;;23.80;28.60;;;;;;2256943;61;20593;-64
2021/10/12 06:21:37;0.00;0.00;0.62;0.00;0.00;0.62;3.30;1.30;;;23.80;28.60;;;;;;2258195;61;20426;-58
2021/10/12 06:24:22;0.00;0.00;0.62;0.00;0.00;0.62;2.73;1.30;;;23.80;28.60;;;;;;2257503;61;20389;-62
2021/10/12 06:27:06;0.00;0.00;0.62;0.00;0.00;0.62;1.50;0.90;;;23.80;28.50;;;;;;2257295;61;20407;-61
2021/10/12 06:29:51;0.00;0.00;0.62;0.00;0.00;0.62;1.90;0.93;;;23.80;28.50;;;;;;2258063;61;20707;-60
2021/10/12 06:32:37;0.00;0.00;0.62;0.00;0.00;0.62;1.80;1.00;;;23.80;28.60;;;;;;2257212;61;20360;-61
2021/10/12 06:35:23;0.00;0.00;0.62;0.00;0.00;0.62;2.57;1.30;;;23.90;28.60;;;;;;2257810;61;20410;-60
2021/10/12 06:38:07;0.00;0.00;0.62;0.00;0.00;0.62;2.73;1.40;;;23.90;28.70;;;;;;2257810;61;20449;-64
2021/10/12 06:40:52;0.00;0.00;0.62;0.00;0.00;0.62;2.13;1.20;;;23.90;28.70;;;;;;2257022;61;20406;-63
2021/10/12 06:43:36;0.00;0.00;0.62;0.00;0.00;0.62;3.80;1.70;;;23.90;28.70;;;;;;2257812;61;20363;-64
2021/10/12 06:46:21;0.00;0.00;0.62;0.00;0.00;0.62;4.53;1.50;;;23.90;28.70;;;;;;2257848;61;20422;-61
2021/10/12 06:49:05;0.00;0.00;0.62;0.00;0.00;0.62;2.40;1.10;;;23.90;29.20;;;;;;2260930;61;20405;-59
2021/10/12 06:51:51;0.00;0.00;0.62;0.00;0.00;0.62;4.70;1.33;;;23.90;28.70;;;;;;2258651;61;20474;-60
2021/10/12 06:54:37;0.00;0.00;0.62;0.00;0.00;0.62;3.33;1.40;;;23.90;28.80;;;;;;2261221;61;20484;-64
2021/10/12 06:57:21;0.00;0.00;0.62;0.00;0.00;0.62;2.70;1.40;;;23.90;28.70;;;;;;2261512;61;20405;-64
2021/10/12 07:00:11;0.00;0.00;0.62;0.00;0.00;0.62;4.20;2.13;;;23.90;28.80;;;;;;2261908;61;20409;-64
2021/10/12 07:02:57;0.00;0.00;0.62;0.00;0.00;0.62;3.70;2.00;;;23.90;28.70;;;;;;2260866;61;20362;-64
2021/10/12 07:05:41;0.00;0.00;0.62;0.00;0.00;0.62;3.70;2.03;;;23.90;28.80;;;;;;2261949;61;20436;-66
2021/10/12 07:08:27;0.00;0.00;0.62;0.00;0.00;0.62;8.60;1.83;;;24.00;28.80;;;;;;2261780;61;20385;-63
2021/10/12 07:11:12;0.00;0.00;0.62;0.00;0.00;0.62;3.60;1.80;;;24.00;28.80;;;;;;2261123;61;20362;-64
2021/10/12 07:13:56;0.00;0.00;0.62;0.00;0.00;0.62;5.60;1.90;;;24.00;28.90;;;;;;2261847;61;20361;-63
2021/10/12 07:16:41;0.00;0.00;0.62;0.00;0.00;0.62;4.37;2.10;;;24.00;28.90;;;;;;2261075;61;20405;-61
2021/10/12 07:19:26;0.00;0.00;0.62;0.00;0.00;0.62;4.30;2.10;;;24.00;28.90;;;;;;2259066;61;20370;-63
2021/10/12 07:22:11;0.00;0.00;0.62;0.00;0.00;0.62;6.83;1.90;;;24.00;29.00;;;;;;2331816;53;20647;-64
2021/10/12 07:24:58;0.00;0.00;0.62;0.00;0.00;0.62;5.37;1.93;;;24.00;29.00;;;;;;2253160;61;20603;-65
2021/10/12 07:27:43;0.00;0.00;0.62;0.00;0.00;0.62;6.77;2.10;;;24.00;29.00;;;;;;2255052;61;20578;-67
2021/10/12 07:30:28;0.00;0.00;0.62;0.00;0.00;0.62;6.33;1.80;;;24.00;29.00;;;;;;2257994;61;20378;-61
2021/10/12 07:33:13;0.00;0.00;0.62;0.00;0.00;0.62;4.30;2.07;;;24.00;29.00;;;;;;2256881;61;20363;-63
2021/10/12 07:35:57;0.00;0.00;0.62;0.00;0.00;0.62;5.97;1.80;;;24.10;29.10;;;;;;2257743;61;20362;-62
2021/10/12 07:38:54;0.00;0.00;0.62;0.00;0.00;0.62;8.20;2.30;;;24.10;29.10;;;;;;2256943;61;20459;-64
2021/10/12 07:41:40;0.00;0.00;0.62;0.00;0.00;0.62;6.07;2.73;;;24.10;29.10;;;;;;2257481;61;20421;-63
2021/10/12 07:44:25;0.00;0.00;0.62;0.00;0.00;0.62;10.63;2.33;;;24.10;29.20;;;;;;2257792;61;20819;-63
2021/10/12 07:47:09;0.00;0.00;0.62;0.00;0.00;0.62;7.63;1.87;;;24.10;29.10;;;;;;2256663;61;20394;-63
2021/10/12 07:49:54;0.00;0.00;0.62;0.00;0.00;0.62;5.30;2.90;;;24.10;29.10;;;;;;2257802;61;20358;-64
2021/10/12 07:52:39;0.00;0.00;0.62;0.00;0.00;0.62;10.63;2.90;;;24.10;29.10;;;;;;2257740;61;20438;-67
2021/10/12 07:55:37;0.00;0.00;0.62;0.00;0.00;0.62;4.43;2.20;;;24.10;29.10;;;;;;2256784;61;20623;-66
2021/10/12 07:58:23;0.00;0.00;0.62;0.00;0.00;0.62;6.13;1.53;;;24.20;29.20;;;;;;2259528;61;20398;-60
2021/10/12 08:01:07;0.00;0.00;0.62;0.00;0.00;0.62;8.73;1.80;;;24.20;29.20;;;;;;2259538;61;20391;-61
2021/10/12 08:03:51;0.00;0.00;0.62;0.00;0.00;0.62;4.77;1.80;;;24.20;29.10;;;;;;2257570;61;20402;-65
2021/10/12 08:06:37;0.00;0.00;0.62;0.00;0.00;0.62;4.57;2.17;;;24.20;29.20;;;;;;2257834;61;20632;-62
2021/10/12 08:09:21;0.00;0.00;0.62;0.00;0.00;0.62;3.70;2.13;;;24.20;29.10;;;;;;2256564;61;20367;-61
2021/10/12 08:12:07;0.00;0.00;0.62;0.00;0.00;0.62;6.47;2.17;;;24.20;29.10;;;;;;2257759;61;20363;-64
2021/10/12 08:14:59;0.00;0.00;0.62;0.00;0.00;0.62;10.30;2.47;;;24.20;29.10;;;;;;2257653;61;20440;-65
2021/10/12 08:17:43;0.00;0.00;0.62;0.00;0.00;0.62;4.80;2.13;;;24.20;29.10;;;;;;2257084;61;20701;-64
2021/10/12 08:20:28;0.00;0.00;0.62;0.00;0.00;0.62;3.70;1.93;;;24.20;29.10;;;;;;2257717;61;20410;-68
2021/10/12 08:23:12;0.00;0.00;0.62;0.00;0.00;0.62;4.10;1.50;;;24.20;29.20;;;;;;2257121;61;20726;-63
2021/10/12 08:25:59;0.00;0.00;0.62;0.00;0.00;0.62;10.17;2.37;;;24.20;29.10;;;;;;2257616;61;20390;-59
2021/10/12 08:28:47;0.00;0.00;0.62;0.00;0.00;0.62;5.53;2.10;;;24.20;29.20;;;;;;2257830;61;20459;-60
2021/10/12 08:31:33;0.00;0.00;0.62;0.00;0.00;0.62;5.93;2.10;;;24.30;29.20;;;;;;2256923;61;20355;-64
2021/10/12 08:34:18;0.00;0.00;0.62;0.00;0.00;0.62;3.57;1.93;;;24.30;29.30;;;;;;2257645;61;20369;-63
2021/10/12 08:37:03;0.00;0.00;0.62;0.00;0.00;0.62;6.13;2.23;;;24.30;29.20;;;;;;2257506;61;20394;-63
2021/10/12 08:39:48;0.00;0.00;0.62;0.00;0.00;0.62;5.07;2.20;;;24.30;29.20;;;;;;2256717;61;20427;-64
2021/10/12 08:42:38;0.00;0.00;0.62;0.00;0.00;0.62;6.60;2.40;;;24.30;29.20;;;;;;2257705;61;20394;-62
2021/10/12 08:45:23;0.00;0.00;0.62;0.00;0.00;0.62;10.77;2.60;;;24.30;29.30;;;;;;2257165;61;20426;-60
2021/10/12 08:48:11;0.00;0.00;0.62;0.00;0.00;0.62;10.77;2.80;;;24.30;29.30;;;;;;2254154;61;20374;-62
2021/10/12 08:50:56;0.00;0.00;0.62;0.00;0.00;0.62;6.37;1.93;;;24.30;29.30;;;;;;2257587;61;20378;-63
2021/10/12 08:53:40;0.00;0.00;0.62;0.00;0.00;0.62;5.50;2.10;;;24.30;29.20;;;;;;2256570;61;20409;-65
2021/10/12 08:56:25;0.00;0.00;0.62;0.00;0.00;0.62;8.37;2.30;;;24.30;29.20;;;;;;2257701;61;20447;-65
2021/10/12 08:59:09;0.00;0.00;0.62;0.00;0.00;0.62;9.43;2.37;;;24.40;29.30;;;;;;2258321;61;20412;-64
2021/10/12 09:01:59;0.00;0.00;0.62;0.00;0.00;0.62;14.27;3.13;;;24.40;29.30;;;;;;2257435;61;20394;-62
2021/10/12 09:04:45;0.00;0.00;0.62;0.00;0.00;0.62;9.17;2.60;;;24.40;29.30;;;;;;2258447;61;20727;-63
2021/10/12 09:07:30;0.00;0.00;0.62;0.00;0.00;0.62;9.60;2.60;;;24.40;29.30;;;;;;2257727;61;20759;-62
2021/10/12 09:10:20;0.00;0.00;0.62;0.00;0.00;0.62;8.03;3.40;;;24.40;29.30;;;;;;2257777;61;20792;-63
2021/10/12 09:13:07;0.00;0.00;0.62;0.00;0.00;0.62;12.37;3.30;;;24.40;29.40;;;;;;2258269;61;20355;-64
2021/10/12 09:16:05;0.00;0.00;0.62;0.00;0.00;0.62;12.70;3.50;;;24.50;29.40;;;;;;2257144;61;20362;-62
2021/10/12 09:18:53;0.00;0.00;0.62;0.00;0.00;0.62;14.50;3.73;;;24.50;29.40;;;;;;2258133;61;20405;-65
2021/10/12 09:21:41;0.00;0.00;0.62;0.00;0.00;0.62;9.83;3.50;;;24.50;29.50;;;;;;2258264;61;20387;-63
2021/10/12 09:24:26;0.00;0.00;0.62;0.00;0.00;0.62;14.90;4.07;;;24.50;29.50;;;;;;2257524;61;20482;-62
2021/10/12 09:27:14;0.00;0.00;0.62;0.00;0.00;0.62;17.93;4.83;;;24.60;29.50;;;;;;2258178;61;20358;-64
2021/10/12 09:30:07;0.00;0.00;0.62;0.00;0.00;0.62;13.90;4.50;;;24.60;29.50;;;;;;2257731;61;20351;-64
2021/10/12 09:33:01;0.00;0.00;0.62;0.00;0.00;0.62;15.60;4.63;;;24.60;29.50;;;;;;2257903;61;20363;-62
2021/10/12 09:35:46;0.00;0.00;0.62;0.00;0.00;0.62;20.03;5.47;;;24.60;29.50;;;;;;2258310;61;20366;-63
2021/10/12 09:38:32;0.00;0.00;0.62;0.00;0.00;0.62;12.53;4.40;;;24.60;29.50;;;;;;2257049;61;20599;-60
2021/10/12 09:41:16;0.00;0.00;0.62;0.00;0.00;0.62;18.07;4.07;;;24.70;29.50;;;;;;2258221;61;20382;-63
2021/10/12 09:44:15;0.00;0.00;0.62;0.00;0.00;0.62;10.20;4.13;;;24.70;29.50;;;;;;2258001;61;20391;-63
2021/10/12 09:47:08;0.00;0.00;0.62;0.00;0.00;0.62;10.73;3.83;;;24.70;29.50;;;;;;2257479;61;20354;-63
2021/10/12 09:50:07;0.00;0.00;0.62;0.00;0.00;0.62;14.53;4.40;;;24.70;29.50;;;;;;2258290;61;20366;-64
2021/10/12 09:52:52;0.00;0.00;0.62;0.00;0.00;0.62;19.17;4.50;;;24.80;29.50;;;;;;2257197;61;20355;-61
2021/10/12 09:55:38;0.00;0.00;0.62;0.00;0.00;0.62;10.80;4.60;;;24.80;29.50;;;;;;2254990;61;20383;-63
2021/10/12 09:58:22;0.00;0.00;0.62;0.00;0.00;0.62;11.40;4.07;;;24.80;29.50;;;;;;2258295;61;20461;-63
2021/10/12 10:01:09;0.00;0.00;0.62;0.00;0.00;0.62;9.17;4.40;;;24.90;29.60;;;;;;2257109;61;20414;-63
2021/10/12 10:03:54;0.00;0.00;0.62;0.00;0.00;0.62;10.33;4.30;;;24.90;29.60;;;;;;2258148;61;20387;-65
2021/10/12 10:06:43;0.00;0.00;0.62;0.00;0.00;0.62;13.93;4.70;;;24.90;29.60;;;;;;2256821;61;20414;-62
2021/10/12 10:09:29;0.00;0.00;0.62;0.00;0.00;0.62;15.87;5.10;;;25.00;29.70;;;;;;2257566;61;20374;-66
2021/10/12 10:12:15;0.00;0.00;0.62;0.00;0.00;0.62;13.27;4.47;;;25.00;29.70;;;;;;2258107;61;20343;-65
2021/10/12 10:15:00;0.00;0.00;0.62;0.00;0.00;0.62;19.47;5.50;;;25.10;29.70;;;;;;2255873;61;20763;-72
2021/10/12 10:17:47;0.00;0.00;0.62;0.00;0.00;0.62;16.63;5.77;;;25.10;29.70;;;;;;2258128;61;20445;-63
2021/10/12 10:20:32;0.00;0.00;0.62;0.00;0.00;0.62;13.10;4.60;;;25.10;29.70;;;;;;2254398;61;20382;-63
2021/10/12 10:23:55;0.00;0.00;0.62;0.00;0.00;0.62;13.43;4.60;;;25.10;29.70;;;;;;2253202;61;20399;-62
2021/10/12 10:26:41;0.00;0.00;0.62;0.00;0.00;0.62;15.77;5.27;;;25.20;29.60;;;;;;2254125;61;20575;-63
2021/10/12 10:29:37;0.00;0.00;0.62;0.00;0.00;0.62;15.90;4.93;;;25.20;29.60;;;;;;2253256;61;20396;-63
2021/10/12 10:32:22;0.00;0.00;0.62;0.00;0.00;0.62;21.43;5.27;;;25.30;29.60;;;;;;2251007;61;20382;-61
2021/10/12 10:35:12;0.00;0.00;0.62;0.00;0.00;0.62;14.70;5.30;;;25.30;29.50;;;;;;2253947;61;20368;-61
2021/10/12 10:38:28;0.00;0.00;0.62;0.00;0.00;0.62;18.03;4.47;;;25.30;29.50;;;;;;2249765;61;20775;-61
2021/10/12 10:41:24;0.00;0.00;0.62;0.00;0.00;0.62;9.50;4.17;;;25.30;29.40;;;;;;2254008;61;20384;-64
2021/10/12 10:44:09;0.00;0.00;0.62;0.00;0.00;0.62;15.17;5.47;;;25.40;29.50;;;;;;2253333;61;20648;-63
2021/10/12 10:46:54;0.00;0.00;0.62;0.00;0.00;0.62;12.50;5.30;;;25.30;29.40;;;;;;2250737;61;20368;-63
2021/10/12 10:50:19;0.00;0.00;0.62;0.00;0.00;0.62;11.40;4.77;;;25.40;29.40;;;;;;2253964;61;20439;-62
2021/10/12 10:53:09;0.00;0.00;0.62;0.00;0.00;0.62;18.40;4.70;;;25.40;29.40;;;;;;2253412;61;20429;-63
2021/10/12 10:56:00;0.00;0.00;0.62;0.00;0.00;0.62;8.73;4.43;;;25.40;29.40;;;;;;2253850;61;20364;-63
2021/10/12 10:58:44;0.00;0.00;0.62;0.00;0.00;0.62;11.17;4.27;;;25.40;29.40;;;;;;2253474;61;20379;-63